createdAt,value
2022-09-15T00:00:26.889Z,51.323414
2022-09-15T00:01:26.937Z,51.323433
2022-09-15T00:02:26.973Z,51.323410
2022-09-15T00:03:26.834Z,51.323391
2022-09-15T00:04:26.815Z,51.323391
2022-09-15T00:05:26.808Z,51.323395
2022-09-15T00:06:26.809Z,51.323406
2022-09-15T00:07:26.774Z,51.323395
2022-09-15T00:08:26.756Z,51.323395
2022-09-15T00:09:26.719Z,51.323380
2022-09-15T00:10:26.702Z,51.323399
2022-09-15T00:11:26.710Z,51.323410
2022-09-15T00:12:26.663Z,51.323391
2022-09-15T00:13:26.643Z,51.323387
2022-09-15T00:14:26.622Z,51.323372
2022-09-15T00:15:26.602Z,51.323399
2022-09-15T00:16:26.648Z,51.323414
2022-09-15T00:17:26.570Z,51.323391
2022-09-15T00:18:26.555Z,51.323395
2022-09-15T00:19:26.534Z,51.323387
2022-09-15T00:20:26.520Z,51.323399
2022-09-15T00:21:26.498Z,51.323380
2022-09-15T00:22:26.509Z,51.323418
2022-09-15T00:23:26.460Z,51.323399
2022-09-15T00:24:26.444Z,51.323383
2022-09-15T00:25:26.423Z,51.323406
2022-09-15T00:26:26.433Z,51.323429
2022-09-15T00:27:26.413Z,51.323395
2022-09-15T00:28:26.363Z,51.323368
2022-09-15T00:29:26.347Z,51.323391
2022-09-15T00:30:26.427Z,51.323395
2022-09-15T00:31:26.405Z,51.323395
2022-09-15T00:32:26.323Z,51.323402
2022-09-15T00:33:26.278Z,51.323383
2022-09-15T00:34:26.254Z,51.323383
2022-09-15T00:35:26.237Z,51.323380
2022-09-15T00:36:26.217Z,51.323383
2022-09-15T00:37:26.228Z,51.323372
2022-09-15T00:38:26.183Z,51.323387
2022-09-15T00:39:26.162Z,51.323387
2022-09-15T00:40:26.220Z,51.323380
2022-09-15T00:41:26.125Z,51.323391
2022-09-15T00:42:26.132Z,51.323395
2022-09-15T00:43:26.089Z,51.323402
2022-09-15T00:44:26.068Z,51.323418
2022-09-15T00:45:26.094Z,51.323376
2022-09-15T00:46:26.031Z,51.323410
2022-09-15T00:47:26.041Z,51.323395
2022-09-15T00:48:25.997Z,51.323402
2022-09-15T00:49:25.976Z,51.323364
2022-09-15T00:50:25.955Z,51.323360
2022-09-15T00:51:25.940Z,51.323406
2022-09-15T00:52:25.947Z,51.323418
2022-09-15T00:53:25.896Z,51.323414
2022-09-15T00:54:25.879Z,51.323391
2022-09-15T00:55:25.863Z,51.323399
2022-09-15T00:56:25.844Z,51.323395
2022-09-15T00:57:25.853Z,51.323399
2022-09-15T00:58:25.802Z,51.323395
2022-09-15T00:59:25.781Z,51.323406
2022-09-15T01:00:25.762Z,51.323421
2022-09-15T01:01:25.783Z,51.323418
2022-09-15T01:02:25.796Z,51.323372
2022-09-15T01:03:25.706Z,51.323418
2022-09-15T01:04:25.685Z,51.323418
2022-09-15T01:05:25.664Z,51.323433
2022-09-15T01:06:25.645Z,51.323433
2022-09-15T01:07:25.648Z,51.323395
2022-09-15T01:08:25.602Z,51.323425
2022-09-15T01:09:25.585Z,51.323441
2022-09-15T01:10:25.570Z,51.323441
2022-09-15T01:11:25.546Z,51.323429
2022-09-15T01:12:25.552Z,51.323425
2022-09-15T01:13:25.508Z,51.323452
2022-09-15T01:14:25.485Z,51.323448
2022-09-15T01:15:25.469Z,51.323441
2022-09-15T01:16:25.503Z,51.323444
2022-09-15T01:17:25.459Z,51.323433
2022-09-15T01:18:25.412Z,51.323460
2022-09-15T01:19:25.394Z,51.323414
2022-09-15T01:20:25.371Z,51.323414
2022-09-15T01:21:25.353Z,51.323414
2022-09-15T01:22:25.361Z,51.323444
2022-09-15T01:23:25.322Z,51.323433
2022-09-15T01:24:25.295Z,51.323471
2022-09-15T01:25:25.281Z,51.323444
2022-09-15T01:26:25.265Z,51.323494
2022-09-15T01:27:41.635Z,51.323475
2022-09-15T01:28:27.226Z,51.323463
2022-09-15T01:29:25.206Z,51.323456
2022-09-15T01:30:25.190Z,51.323421
2022-09-15T01:31:25.177Z,51.323399
2022-09-15T01:32:25.169Z,51.323414
2022-09-15T01:33:25.125Z,51.323406
2022-09-15T01:34:25.108Z,51.323418
2022-09-15T01:35:25.085Z,51.323418
2022-09-15T01:36:25.067Z,51.323406
2022-09-15T01:37:25.076Z,51.323391
2022-09-15T01:38:25.032Z,51.323406
2022-09-15T01:39:25.011Z,51.323418
2022-09-15T01:40:25.047Z,51.323395
2022-09-15T01:41:24.976Z,51.323387
2022-09-15T01:42:24.984Z,51.323391
2022-09-15T01:43:24.938Z,51.323406
2022-09-15T01:44:24.924Z,51.323421
2022-09-15T01:45:24.927Z,51.323418
2022-09-15T01:46:24.879Z,51.323399
2022-09-15T01:47:24.883Z,51.323395
2022-09-15T01:48:24.837Z,51.323406
2022-09-15T01:49:24.816Z,51.323414
2022-09-15T01:50:24.808Z,51.323395
2022-09-15T01:51:24.777Z,51.323364
2022-09-15T01:52:24.788Z,51.323410
2022-09-15T01:53:24.743Z,51.323410
2022-09-15T01:54:24.722Z,51.323402
2022-09-15T01:55:24.705Z,51.323444
2022-09-15T01:56:24.688Z,51.323425
2022-09-15T01:57:24.690Z,51.323433
2022-09-15T01:58:24.646Z,51.323433
2022-09-15T01:59:24.628Z,51.323425
2022-09-15T02:00:24.608Z,51.323425
2022-09-15T02:01:24.649Z,51.323437
2022-09-15T02:02:24.635Z,51.323425
2022-09-15T02:03:24.551Z,51.323437
2022-09-15T02:04:24.529Z,51.323437
2022-09-15T02:05:24.511Z,51.323433
2022-09-15T02:06:24.492Z,51.323444
2022-09-15T02:07:24.496Z,51.323448
2022-09-15T02:08:24.454Z,51.323429
2022-09-15T02:09:24.436Z,51.323399
2022-09-15T02:10:24.413Z,51.323402
2022-09-15T02:11:24.393Z,51.323418
2022-09-15T02:12:24.397Z,51.323429
2022-09-15T02:13:24.360Z,51.323425
2022-09-15T02:14:24.332Z,51.323421
2022-09-15T02:15:24.312Z,51.323425
2022-09-15T02:16:24.377Z,51.323414
2022-09-15T02:17:24.297Z,51.323399
2022-09-15T02:18:24.249Z,51.323418
2022-09-15T02:19:24.228Z,51.323437
2022-09-15T02:20:24.210Z,51.323437
2022-09-15T02:21:24.197Z,51.323414
2022-09-15T02:22:24.228Z,51.323414
2022-09-15T02:23:24.155Z,51.323418
2022-09-15T02:24:24.137Z,51.323402
2022-09-15T02:25:24.119Z,51.323410
2022-09-15T02:26:24.124Z,51.323429
2022-09-15T02:27:24.112Z,51.323452
2022-09-15T02:28:24.060Z,51.323441
2022-09-15T02:29:24.042Z,51.323418
2022-09-15T02:30:24.021Z,51.323444
2022-09-15T02:31:24.093Z,51.323452
2022-09-15T02:32:24.008Z,51.323471
2022-09-15T02:33:23.961Z,51.323448
2022-09-15T02:34:23.943Z,51.323441
2022-09-15T02:35:23.920Z,51.323441
2022-09-15T02:36:23.904Z,51.323425
2022-09-15T02:37:23.914Z,51.323444
2022-09-15T02:38:23.870Z,51.323452
2022-09-15T02:39:23.849Z,51.323452
2022-09-15T02:40:23.935Z,51.323444
2022-09-15T02:41:23.811Z,51.323425
2022-09-15T02:42:23.824Z,51.323418
2022-09-15T02:43:23.777Z,51.323395
2022-09-15T02:44:23.755Z,51.323433
2022-09-15T02:45:23.784Z,51.323395
2022-09-15T02:46:23.721Z,51.323429
2022-09-15T02:47:23.732Z,51.323418
2022-09-15T02:48:23.685Z,51.323437
2022-09-15T02:49:23.667Z,51.323406
2022-09-15T02:50:23.646Z,51.323402
2022-09-15T02:51:23.626Z,51.323441
2022-09-15T02:52:23.634Z,51.323429
2022-09-15T02:53:23.586Z,51.323418
2022-09-15T02:54:23.573Z,51.323452
2022-09-15T02:55:23.549Z,51.323498
2022-09-15T02:56:23.535Z,51.323513
2022-09-15T02:57:23.544Z,51.323433
2022-09-15T02:58:23.503Z,51.323486
2022-09-15T02:59:23.474Z,51.323524
2022-09-15T03:00:23.453Z,51.323509
2022-09-15T03:01:23.495Z,51.323528
2022-09-15T03:02:23.490Z,51.323544
2022-09-15T03:03:23.388Z,51.323475
2022-09-15T03:04:23.372Z,51.323456
2022-09-15T03:05:23.354Z,51.323517
2022-09-15T03:06:23.335Z,51.323486
2022-09-15T03:07:23.343Z,51.323502
2022-09-15T03:08:23.294Z,51.323524
2022-09-15T03:09:23.273Z,51.323505
2022-09-15T03:10:23.295Z,51.323483
2022-09-15T03:11:23.231Z,51.323490
2022-09-15T03:12:23.250Z,51.323509
2022-09-15T03:13:23.199Z,51.323540
2022-09-15T03:14:23.208Z,51.323521
2022-09-15T03:15:23.159Z,51.323490
2022-09-15T03:16:23.198Z,51.323517
2022-09-15T03:17:23.146Z,51.323513
2022-09-15T03:18:23.100Z,51.323505
2022-09-15T03:19:23.082Z,51.323589
2022-09-15T03:20:23.059Z,51.323563
2022-09-15T03:21:23.043Z,51.323551
2022-09-15T03:22:23.058Z,51.323460
2022-09-15T03:23:23.004Z,51.323483
2022-09-15T03:24:22.981Z,51.323555
2022-09-15T03:25:22.965Z,51.323547
2022-09-15T03:26:22.940Z,51.323513
2022-09-15T03:27:22.953Z,51.323505
2022-09-15T03:28:22.901Z,51.323486
2022-09-15T03:29:22.885Z,51.323494
2022-09-15T03:30:22.863Z,51.323505
2022-09-15T03:31:22.924Z,51.323574
2022-09-15T03:32:22.845Z,51.323589
2022-09-15T03:33:22.804Z,51.323620
2022-09-15T03:34:22.781Z,51.323547
2022-09-15T03:35:22.764Z,51.323490
2022-09-15T03:36:22.752Z,51.323490
2022-09-15T03:37:22.729Z,51.323505
2022-09-15T03:38:22.733Z,51.323578
2022-09-15T03:39:22.688Z,51.323433
2022-09-15T03:40:22.695Z,51.323551
2022-09-15T03:41:22.652Z,51.323521
2022-09-15T03:42:22.655Z,51.323483
2022-09-15T03:43:22.611Z,51.323502
2022-09-15T03:44:22.594Z,51.323467
2022-09-15T03:45:22.572Z,51.323387
2022-09-15T03:46:22.580Z,51.323391
2022-09-15T03:47:22.570Z,51.323380
2022-09-15T03:48:22.513Z,51.323372
2022-09-15T03:49:22.510Z,51.323536
2022-09-15T03:50:22.480Z,51.323505
2022-09-15T03:51:22.463Z,51.323448
2022-09-15T03:52:22.438Z,51.323357
2022-09-15T03:53:22.447Z,51.323441
2022-09-15T03:54:22.405Z,51.323425
2022-09-15T03:55:22.383Z,51.323414
2022-09-15T03:56:22.365Z,51.323421
2022-09-15T03:57:22.374Z,51.323460
2022-09-15T03:58:22.329Z,51.323441
2022-09-15T03:59:22.311Z,51.323406
2022-09-15T04:00:22.290Z,51.323425
2022-09-15T04:01:22.344Z,51.323418
2022-09-15T04:02:22.342Z,51.323437
2022-09-15T04:03:22.237Z,51.323395
2022-09-15T04:04:22.218Z,51.323391
2022-09-15T04:05:22.200Z,51.323395
2022-09-15T04:06:22.205Z,51.323380
2022-09-15T04:07:22.198Z,51.323463
2022-09-15T04:08:22.147Z,51.323452
2022-09-15T04:09:22.131Z,51.323486
2022-09-15T04:10:22.113Z,51.323460
2022-09-15T04:11:22.119Z,51.323460
2022-09-15T04:12:22.076Z,51.323448
2022-09-15T04:13:26.658Z,51.323421
2022-09-15T04:14:24.040Z,51.323406
2022-09-15T04:15:22.024Z,51.323372
2022-09-15T04:16:22.116Z,51.323421
2022-09-15T04:17:21.991Z,51.323387
2022-09-15T04:18:21.997Z,51.323418
2022-09-15T04:19:21.949Z,51.323414
2022-09-15T04:20:21.931Z,51.323372
2022-09-15T04:21:21.912Z,51.323372
2022-09-15T04:22:21.921Z,51.323387
2022-09-15T04:23:21.906Z,51.323376
2022-09-15T04:24:21.865Z,51.323395
2022-09-15T04:25:21.846Z,51.323395
2022-09-15T04:26:21.820Z,51.323418
2022-09-15T04:27:21.804Z,51.323410
2022-09-15T04:28:21.803Z,51.323383
2022-09-15T04:29:22.770Z,51.323364
2022-09-15T04:30:21.749Z,51.323383
2022-09-15T04:31:21.774Z,51.323399
2022-09-15T04:32:21.716Z,51.323399
2022-09-15T04:33:21.725Z,51.323391
2022-09-15T04:34:21.681Z,51.323376
2022-09-15T04:35:21.662Z,51.323364
2022-09-15T04:36:21.638Z,51.323391
2022-09-15T04:37:21.651Z,51.323383
2022-09-15T04:38:21.604Z,51.323380
2022-09-15T04:39:21.584Z,51.323387
2022-09-15T04:40:21.613Z,51.323406
2022-09-15T04:41:21.554Z,51.323402
2022-09-15T04:42:21.561Z,51.323402
2022-09-15T04:43:21.514Z,51.323414
2022-09-15T04:44:21.493Z,51.323399
2022-09-15T04:45:21.475Z,51.323406
2022-09-15T04:46:21.500Z,51.323402
2022-09-15T04:47:21.502Z,51.323406
2022-09-15T04:48:21.415Z,51.323402
2022-09-15T04:49:21.398Z,51.323402
2022-09-15T04:50:21.380Z,51.323395
2022-09-15T04:51:21.347Z,51.323402
2022-09-15T04:52:22.371Z,51.323402
2022-09-15T04:53:21.322Z,51.323391
2022-09-15T04:54:21.305Z,51.323399
2022-09-15T04:55:21.293Z,51.323395
2022-09-15T04:56:21.273Z,51.323429
2022-09-15T04:57:21.310Z,51.323456
2022-09-15T04:58:21.233Z,51.323429
2022-09-15T04:59:21.216Z,51.323410
2022-09-15T05:00:21.196Z,51.323402
2022-09-15T05:01:21.278Z,51.323421
2022-09-15T05:02:21.261Z,51.323418
2022-09-15T05:03:21.148Z,51.323406
2022-09-15T05:04:21.131Z,51.323414
2022-09-15T05:05:21.114Z,51.323425
2022-09-15T05:06:21.090Z,51.323429
2022-09-15T05:07:21.101Z,51.323433
2022-09-15T05:08:21.054Z,51.323429
2022-09-15T05:09:21.035Z,51.323429
2022-09-15T05:10:21.014Z,51.323429
2022-09-15T05:11:21.002Z,51.323433
2022-09-15T05:12:21.005Z,51.323418
2022-09-15T05:13:20.956Z,51.323425
2022-09-15T05:14:20.936Z,51.323421
2022-09-15T05:15:20.926Z,51.323433
2022-09-15T05:16:20.986Z,51.323437
2022-09-15T05:17:23.134Z,51.323444
2022-09-15T05:18:21.861Z,51.323421
2022-09-15T05:19:20.848Z,51.323383
2022-09-15T05:20:20.825Z,51.323414
2022-09-15T05:21:20.811Z,51.323433
2022-09-15T05:22:20.817Z,51.323429
2022-09-15T05:23:20.769Z,51.323421
2022-09-15T05:24:20.747Z,51.323391
2022-09-15T05:25:20.732Z,51.323425
2022-09-15T05:26:20.714Z,51.323433
2022-09-15T05:27:20.718Z,51.323414
2022-09-15T05:28:20.675Z,51.323418
2022-09-15T05:29:20.654Z,51.323425
2022-09-15T05:30:39.598Z,51.323421
2022-09-15T05:31:22.683Z,51.323418
2022-09-15T05:32:20.620Z,51.323406
2022-09-15T05:33:21.588Z,51.323406
2022-09-15T05:34:20.563Z,51.323425
2022-09-15T05:35:20.547Z,51.323399
2022-09-15T05:36:20.528Z,51.323418
2022-09-15T05:37:20.545Z,51.323421
2022-09-15T05:38:20.496Z,51.323399
2022-09-15T05:39:20.471Z,51.323399
2022-09-15T05:40:20.495Z,51.323406
2022-09-15T05:41:20.432Z,51.323399
2022-09-15T05:42:20.439Z,51.323414
2022-09-15T05:43:20.394Z,51.323395
2022-09-15T05:44:21.378Z,51.323395
2022-09-15T05:45:20.359Z,51.323414
2022-09-15T05:46:20.409Z,51.323414
2022-09-15T05:47:20.339Z,51.323429
2022-09-15T05:48:20.297Z,51.323406
2022-09-15T05:49:20.277Z,51.323414
2022-09-15T05:50:20.257Z,51.323437
2022-09-15T05:51:20.239Z,51.323437
2022-09-15T05:52:20.241Z,51.323433
2022-09-15T05:53:20.193Z,51.323441
2022-09-15T05:54:20.175Z,51.323441
2022-09-15T05:55:20.153Z,51.323441
2022-09-15T05:56:20.145Z,51.323429
2022-09-15T05:57:20.171Z,51.323421
2022-09-15T05:58:20.096Z,51.323437
2022-09-15T05:59:20.070Z,51.323452
2022-09-15T06:00:20.051Z,51.323463
2022-09-15T06:01:20.035Z,51.323467
2022-09-15T06:02:20.075Z,51.323463
2022-09-15T06:03:20.078Z,51.323460
2022-09-15T06:04:20.976Z,51.323448
2022-09-15T06:05:19.955Z,51.323452
2022-09-15T06:06:19.992Z,51.323418
2022-09-15T06:07:19.942Z,51.323425
2022-09-15T06:08:19.894Z,51.323399
2022-09-15T06:09:19.878Z,51.323441
2022-09-15T06:10:19.857Z,51.323433
2022-09-15T06:11:19.836Z,51.323418
2022-09-15T06:12:19.846Z,51.323410
2022-09-15T06:13:19.798Z,51.323437
2022-09-15T06:14:19.778Z,51.323448
2022-09-15T06:15:19.759Z,51.323433
2022-09-15T06:16:19.815Z,51.323429
2022-09-15T06:17:19.742Z,51.323444
2022-09-15T06:18:19.698Z,51.323429
2022-09-15T06:19:19.677Z,51.323444
2022-09-15T06:20:19.662Z,51.323437
2022-09-15T06:21:19.638Z,51.323437
2022-09-15T06:22:19.649Z,51.323463
2022-09-15T06:23:19.604Z,51.323471
2022-09-15T06:24:19.578Z,51.323452
2022-09-15T06:25:19.557Z,51.323479
2022-09-15T06:26:19.533Z,51.323483
2022-09-15T06:27:19.546Z,51.323448
2022-09-15T06:28:19.496Z,51.323441
2022-09-15T06:29:19.476Z,51.323441
2022-09-15T06:30:19.459Z,51.323490
2022-09-15T06:31:19.522Z,51.323467
2022-09-15T06:32:19.416Z,51.323437
2022-09-15T06:33:19.403Z,51.323437
2022-09-15T06:34:19.374Z,51.323475
2022-09-15T06:35:19.357Z,51.323437
2022-09-15T06:36:19.364Z,51.323387
2022-09-15T06:37:19.313Z,51.323421
2022-09-15T06:38:19.293Z,51.323444
2022-09-15T06:39:19.277Z,51.323433
2022-09-15T06:40:19.329Z,51.323414
2022-09-15T06:41:19.258Z,51.323433
2022-09-15T06:42:19.209Z,51.323467
2022-09-15T06:43:19.192Z,51.323471
2022-09-15T06:44:19.170Z,51.323463
2022-09-15T06:45:19.147Z,51.323452
2022-09-15T06:46:19.221Z,51.323448
2022-09-15T06:47:19.108Z,51.323444
2022-09-15T06:48:24.698Z,51.323441
2022-09-15T06:49:21.068Z,51.323444
2022-09-15T06:50:19.051Z,51.323463
2022-09-15T06:51:19.059Z,51.323452
2022-09-15T06:52:19.007Z,51.323437
2022-09-15T06:53:19.015Z,51.323456
2022-09-15T06:54:18.982Z,51.323448
2022-09-15T06:55:18.947Z,51.323463
2022-09-15T06:56:18.954Z,51.323471
2022-09-15T06:57:18.909Z,51.323471
2022-09-15T06:58:18.893Z,51.323467
2022-09-15T06:59:18.892Z,51.323441
2022-09-15T07:00:18.847Z,51.323475
2022-09-15T07:01:18.828Z,51.323582
2022-09-15T07:02:18.932Z,51.323597
2022-09-15T07:03:18.857Z,51.323532
2022-09-15T07:04:18.768Z,51.323513
2022-09-15T07:05:18.746Z,51.323528
2022-09-15T07:06:18.755Z,51.323505
2022-09-15T07:07:18.705Z,51.323483
2022-09-15T07:08:18.682Z,51.323502
2022-09-15T07:09:18.658Z,51.323494
2022-09-15T07:10:18.639Z,51.323540
2022-09-15T07:11:18.653Z,51.323540
2022-09-15T07:12:18.601Z,51.323517
2022-09-15T07:13:18.580Z,51.323524
2022-09-15T07:14:18.557Z,51.323502
2022-09-15T07:15:18.535Z,51.323479
2022-09-15T07:16:18.579Z,51.323475
2022-09-15T07:17:18.499Z,51.323460
2022-09-15T07:18:18.469Z,51.323463
2022-09-15T07:19:18.480Z,51.323467
2022-09-15T07:20:18.430Z,51.323475
2022-09-15T07:21:18.439Z,51.323467
2022-09-15T07:22:18.384Z,51.323479
2022-09-15T07:23:18.359Z,51.323467
2022-09-15T07:24:18.340Z,51.323479
2022-09-15T07:25:18.315Z,51.323475
2022-09-15T07:26:18.292Z,51.323483
2022-09-15T07:27:18.296Z,51.323471
2022-09-15T07:28:18.247Z,51.323479
2022-09-15T07:29:18.225Z,51.323463
2022-09-15T07:30:18.205Z,51.323463
2022-09-15T07:31:18.263Z,51.323463
2022-09-15T07:32:18.186Z,51.323441
2022-09-15T07:33:18.140Z,51.323448
2022-09-15T07:34:18.113Z,51.323452
2022-09-15T07:35:18.093Z,51.323456
2022-09-15T07:36:18.071Z,51.323448
2022-09-15T07:37:18.070Z,51.323441
2022-09-15T07:38:18.021Z,51.323452
2022-09-15T07:39:17.999Z,51.323448
2022-09-15T07:40:18.039Z,51.323467
2022-09-15T07:41:17.954Z,51.323448
2022-09-15T07:42:17.958Z,51.323448
2022-09-15T07:43:17.924Z,51.323460
2022-09-15T07:44:17.909Z,51.323456
2022-09-15T07:45:17.871Z,51.323444
2022-09-15T07:46:17.852Z,51.323452
2022-09-15T07:47:17.861Z,51.323471
2022-09-15T07:48:17.807Z,51.323437
2022-09-15T07:49:17.805Z,51.323425
2022-09-15T07:50:17.766Z,51.323444
2022-09-15T07:51:17.740Z,51.323463
2022-09-15T07:52:17.759Z,51.323456
2022-09-15T07:53:17.699Z,51.323471
2022-09-15T07:54:21.965Z,51.323452
2022-09-15T07:55:19.653Z,51.323444
2022-09-15T07:56:17.635Z,51.323452
2022-09-15T07:57:17.638Z,51.323448
2022-09-15T07:58:17.590Z,51.323452
2022-09-15T07:59:17.571Z,51.323414
2022-09-15T08:00:17.554Z,51.323425
2022-09-15T08:01:17.689Z,51.323437
2022-09-15T08:02:17.583Z,51.323425
2022-09-15T08:03:17.476Z,51.323410
2022-09-15T08:04:17.459Z,51.323429
2022-09-15T08:05:17.432Z,51.323437
2022-09-15T08:06:17.437Z,51.323433
2022-09-15T08:07:17.387Z,51.323425
2022-09-15T08:08:17.365Z,51.323425
2022-09-15T08:09:17.343Z,51.323433
2022-09-15T08:10:17.319Z,51.323399
2022-09-15T08:11:18.913Z,51.323437
2022-09-15T08:12:18.275Z,51.323444
2022-09-15T08:13:17.252Z,51.323429
2022-09-15T08:14:17.231Z,51.323437
2022-09-15T08:15:17.211Z,51.323441
2022-09-15T08:16:17.298Z,51.323452
2022-09-15T08:17:17.163Z,51.323421
2022-09-15T08:18:17.135Z,51.323448
2022-09-15T08:19:17.118Z,51.323425
2022-09-15T08:20:17.111Z,51.323448
2022-09-15T08:21:17.101Z,51.323471
2022-09-15T08:22:17.049Z,51.323410
2022-09-15T08:23:17.027Z,51.323383
2022-09-15T08:24:17.005Z,51.323395
2022-09-15T08:25:16.979Z,51.323399
2022-09-15T08:26:16.989Z,51.323395
2022-09-15T08:27:16.935Z,51.323383
2022-09-15T08:28:16.919Z,51.323402
2022-09-15T08:29:16.893Z,51.323391
2022-09-15T08:30:16.870Z,51.323341
2022-09-15T08:31:16.966Z,51.323372
2022-09-15T08:32:16.820Z,51.323380
2022-09-15T08:33:16.807Z,51.323372
2022-09-15T08:34:16.773Z,51.323360
2022-09-15T08:35:16.753Z,51.323383
2022-09-15T08:36:16.766Z,51.323391
2022-09-15T08:37:16.711Z,51.323376
2022-09-15T08:38:16.685Z,51.323353
2022-09-15T08:39:16.663Z,51.323338
2022-09-15T08:40:16.700Z,51.323326
2022-09-15T08:41:16.645Z,51.323383
2022-09-15T08:42:16.598Z,51.323399
2022-09-15T08:43:16.582Z,51.323406
2022-09-15T08:44:16.551Z,51.323414
2022-09-15T08:45:16.529Z,51.323399
2022-09-15T08:46:16.582Z,51.323334
2022-09-15T08:47:16.481Z,51.323380
2022-09-15T08:48:16.460Z,51.323372
2022-09-15T08:49:26.868Z,51.323345
2022-09-15T08:50:18.506Z,51.323364
2022-09-15T08:51:16.419Z,51.323383
2022-09-15T08:52:16.373Z,51.323383
2022-09-15T08:53:16.355Z,51.323380
2022-09-15T08:54:16.328Z,51.323380
2022-09-15T08:55:16.303Z,51.323338
2022-09-15T08:56:16.307Z,51.323330
2022-09-15T08:57:17.259Z,51.323364
2022-09-15T08:58:16.238Z,51.323376
2022-09-15T08:59:16.219Z,51.323364
2022-09-15T09:00:16.192Z,51.323376
2022-09-15T09:01:16.228Z,51.323380
2022-09-15T09:02:16.380Z,51.323372
2022-09-15T09:03:16.126Z,51.323376
2022-09-15T09:04:18.111Z,51.323368
2022-09-15T09:05:17.075Z,51.323360
2022-09-15T09:06:16.080Z,51.323383
2022-09-15T09:07:16.031Z,51.323372
2022-09-15T09:08:16.006Z,51.323368
2022-09-15T09:09:15.984Z,51.323376
2022-09-15T09:10:15.961Z,51.323402
2022-09-15T09:11:15.962Z,51.323402
2022-09-15T09:12:15.912Z,51.323406
2022-09-15T09:13:15.889Z,51.323406
2022-09-15T09:14:15.868Z,51.323406
2022-09-15T09:15:15.842Z,51.323414
2022-09-15T09:16:15.881Z,51.323399
2022-09-15T09:17:15.797Z,51.323387
2022-09-15T09:18:15.774Z,51.323387
2022-09-15T09:19:15.752Z,51.323391
2022-09-15T09:20:15.728Z,51.323410
2022-09-15T09:21:15.733Z,51.323395
2022-09-15T09:22:15.693Z,51.323399
2022-09-15T09:23:15.659Z,51.323402
2022-09-15T09:24:15.636Z,51.323402
2022-09-15T09:25:26.628Z,51.323421
2022-09-15T09:26:17.619Z,51.323406
2022-09-15T09:27:15.570Z,51.323421
2022-09-15T09:28:15.546Z,51.323421
2022-09-15T09:29:15.523Z,51.323406
2022-09-15T09:30:15.499Z,51.323360
2022-09-15T09:31:15.558Z,51.323387
2022-09-15T09:32:18.598Z,51.323399
2022-09-15T09:33:17.436Z,51.323376
2022-09-15T09:34:15.413Z,51.323387
2022-09-15T09:35:15.397Z,51.323406
2022-09-15T09:36:15.398Z,51.323402
2022-09-15T09:37:15.330Z,51.323387
2022-09-15T09:38:16.318Z,51.323391
2022-09-15T09:39:15.294Z,51.323387
2022-09-15T09:40:15.343Z,51.323391
2022-09-15T09:41:15.260Z,51.323387
2022-09-15T09:42:15.235Z,51.323406
2022-09-15T09:43:15.219Z,51.323410
2022-09-15T09:44:15.186Z,51.323410
2022-09-15T09:45:15.193Z,51.323387
2022-09-15T09:46:15.334Z,51.323383
2022-09-15T09:47:15.118Z,51.323376
2022-09-15T09:48:15.094Z,51.323399
2022-09-15T09:49:15.076Z,51.323387
2022-09-15T09:50:15.147Z,51.323399
2022-09-15T09:51:15.060Z,51.323376
2022-09-15T09:52:17.900Z,51.323402
2022-09-15T09:53:15.985Z,51.323410
2022-09-15T09:54:14.965Z,51.323410
2022-09-15T09:55:14.940Z,51.323402
2022-09-15T09:56:14.949Z,51.323360
2022-09-15T09:57:14.898Z,51.323383
2022-09-15T09:58:14.871Z,51.323383
2022-09-15T09:59:14.849Z,51.323406
2022-09-15T10:00:14.950Z,51.323391
2022-09-15T10:01:14.906Z,51.323418
2022-09-15T10:02:14.781Z,51.323402
2022-09-15T10:03:14.760Z,51.323383
2022-09-15T10:04:14.737Z,51.323383
2022-09-15T10:05:14.835Z,51.323399
2022-09-15T10:06:14.718Z,51.323414
2022-09-15T10:07:14.671Z,51.323395
2022-09-15T10:08:14.670Z,51.323357
2022-09-15T10:09:14.626Z,51.323380
2022-09-15T10:10:14.605Z,51.323387
2022-09-15T10:11:14.634Z,51.323406
2022-09-15T10:12:14.563Z,51.323414
2022-09-15T10:13:14.536Z,51.323414
2022-09-15T10:14:14.512Z,51.323402
2022-09-15T10:15:14.485Z,51.323425
2022-09-15T10:16:15.512Z,51.323380
2022-09-15T10:17:14.447Z,51.323376
2022-09-15T10:18:14.425Z,51.323418
2022-09-15T10:19:14.408Z,51.323429
2022-09-15T10:20:14.383Z,51.323421
2022-09-15T10:21:14.388Z,51.323433
2022-09-15T10:22:14.339Z,51.323421
2022-09-15T10:23:14.315Z,51.323418
2022-09-15T10:24:17.960Z,51.323414
2022-09-15T10:25:15.275Z,51.323418
2022-09-15T10:26:14.285Z,51.323406
2022-09-15T10:27:14.233Z,51.323410
2022-09-15T10:28:14.209Z,51.323410
2022-09-15T10:29:14.189Z,51.323414
2022-09-15T10:30:14.166Z,51.323406
2022-09-15T10:31:14.270Z,51.323410
2022-09-15T10:32:14.210Z,51.323410
2022-09-15T10:33:14.109Z,51.323429
2022-09-15T10:34:14.084Z,51.323421
2022-09-15T10:35:14.058Z,51.323425
2022-09-15T10:36:14.043Z,51.323429
2022-09-15T10:37:14.051Z,51.323406
2022-09-15T10:38:15.054Z,51.323406
2022-09-15T10:39:13.981Z,51.323410
2022-09-15T10:40:14.003Z,51.323418
2022-09-15T10:41:13.942Z,51.323421
2022-09-15T10:42:13.947Z,51.323406
2022-09-15T10:43:13.906Z,51.323406
2022-09-15T10:44:13.886Z,51.323402
2022-09-15T10:45:13.865Z,51.323425
2022-09-15T10:46:13.922Z,51.323418
2022-09-15T10:47:13.850Z,51.323402
2022-09-15T10:48:13.803Z,51.323395
2022-09-15T10:49:13.776Z,51.323399
2022-09-15T10:50:13.759Z,51.323425
2022-09-15T10:51:13.744Z,51.323402
2022-09-15T10:52:13.749Z,51.323406
2022-09-15T10:53:13.699Z,51.323414
2022-09-15T10:54:13.679Z,51.323437
2022-09-15T10:55:13.660Z,51.323406
2022-09-15T10:56:13.639Z,51.323402
2022-09-15T10:57:13.677Z,51.323395
2022-09-15T10:58:13.604Z,51.323391
2022-09-15T10:59:13.580Z,51.323414
2022-09-15T11:00:13.573Z,51.323414
2022-09-15T11:01:13.576Z,51.323425
2022-09-15T11:02:13.603Z,51.323383
2022-09-15T11:03:13.502Z,51.323395
2022-09-15T11:04:13.485Z,51.323364
2022-09-15T11:05:13.466Z,51.323391
2022-09-15T11:06:13.463Z,51.323437
2022-09-15T11:07:13.456Z,51.323421
2022-09-15T11:08:13.413Z,51.323402
2022-09-15T11:09:13.392Z,51.323406
2022-09-15T11:10:13.517Z,51.323410
2022-09-15T11:11:13.346Z,51.323418
2022-09-15T11:12:13.358Z,51.323410
2022-09-15T11:13:13.309Z,51.323406
2022-09-15T11:14:13.291Z,51.323399
2022-09-15T11:15:13.268Z,51.323387
2022-09-15T11:16:13.317Z,51.323391
2022-09-15T11:17:13.256Z,51.323391
2022-09-15T11:18:13.220Z,51.323399
2022-09-15T11:19:13.198Z,51.323387
2022-09-15T11:20:13.179Z,51.323402
2022-09-15T11:21:13.155Z,51.323399
2022-09-15T11:22:13.166Z,51.323395
2022-09-15T11:23:13.128Z,51.323383
2022-09-15T11:24:13.107Z,51.323391